Terminal Aerodrome Forecast
Issued by NWS Sioux Falls, SD

Home | Current Version | Previous Version | Graphics & Text | Print | Product List | Glossary On
Versions: 1 2 3 4 5 6 7 8 9 10 11 12 13 14 15
000
FTUS43 KFSD 261134 AAA
TAFHON
TAF AMD
KHON 261134Z 2612/2712 14007KT P6SM SCT100 SCT200
      TEMPO 2612/2613 TSRA BKN100CB
     FM261400 14014KT P6SM SCT120
     FM270200 13007KT P6SM BKN150=

USA.gov is the U.S. government's official web portal to all federal, state and local government web resources and services.